HAZ3759 ZGGG-ZHCC
Flight info
| Callsign | HAZ3759 |
|---|---|
| Flight time | 1h 32m |
| Altitude | 37100 |
| Route | MIKIP9 MIKIP A461 BUBDA/K0896S1100 W56 REBIS/K0893S1130 W56 IGMIG IGM5U |
| Aircraft | B77W/H-SDE1E2E3FGHIJ2J3J4J5M1RWXY/LB1D1 |
Departure
| Time | 2026-04-23 05:59 |
|---|---|
| Airport | Guangzhou Baiyun International Airport (ZGGG) |
Arrival
| Time | 2026-04-23 07:31 |
|---|---|
| Airport | Zhengzhou Xinzheng International Airport (ZHCC) |
| Time | Latitude | Longitude | Altitude | Speed | Heading |
|---|---|---|---|---|---|
| 2026-04-23 05:39 | 23.40069 | 113.30692 | 56 ft | 0 kts | 334° |
| 2026-04-23 05:45 | 23.40058 | 113.30698 | 57 ft | 2 kts | 334° |
| 2026-04-23 05:45 | 23.40046 | 113.30705 | 57 ft | 2 kts | 334° |
| 2026-04-23 05:46 | 23.40033 | 113.30711 | 57 ft | 2 kts | 334° |
| 2026-04-23 05:46 | 23.40020 | 113.30718 | 57 ft | 2 kts | 334° |
| 2026-04-23 05:46 | 23.40006 | 113.30725 | 57 ft | 2 kts | 334° |
| 2026-04-23 05:46 | 23.39993 | 113.30733 | 57 ft | 2 kts | 333° |
| 2026-04-23 05:47 | 23.39979 | 113.30740 | 56 ft | 2 kts | 333° |
| 2026-04-23 05:47 | 23.39966 | 113.30747 | 57 ft | 2 kts | 334° |
| 2026-04-23 05:47 | 23.39953 | 113.30753 | 57 ft | 2 kts | 334° |
| 2026-04-23 05:47 | 23.39939 | 113.30761 | 57 ft | 2 kts | 334° |
| 2026-04-23 05:48 | 23.39926 | 113.30767 | 57 ft | 2 kts | 356° |
| 2026-04-23 05:48 | 23.39916 | 113.30766 | 57 ft | 0 kts | 12° |
| 2026-04-23 05:48 | 23.39916 | 113.30765 | 57 ft | 0 kts | 12° |
| 2026-04-23 05:50 | 23.39938 | 113.30771 | 56 ft | 5 kts | 12° |
| 2026-04-23 05:50 | 23.39990 | 113.30785 | 56 ft | 9 kts | 13° |
| 2026-04-23 05:51 | 23.40068 | 113.30807 | 56 ft | 12 kts | 16° |
| 2026-04-23 05:51 | 23.40160 | 113.30830 | 56 ft | 13 kts | 17° |
| 2026-04-23 05:51 | 23.40196 | 113.30907 | 56 ft | 12 kts | 98° |
| 2026-04-23 05:51 | 23.40177 | 113.30997 | 56 ft | 12 kts | 125° |
| 2026-04-23 05:52 | 23.40081 | 113.31010 | 57 ft | 16 kts | 194° |
| 2026-04-23 05:52 | 23.39953 | 113.30977 | 56 ft | 20 kts | 193° |
| 2026-04-23 05:52 | 23.39806 | 113.30938 | 57 ft | 22 kts | 194° |
| 2026-04-23 05:52 | 23.39656 | 113.30898 | 56 ft | 21 kts | 193° |
| 2026-04-23 05:53 | 23.39521 | 113.30859 | 56 ft | 18 kts | 195° |
| 2026-04-23 05:53 | 23.39393 | 113.30824 | 56 ft | 18 kts | 194° |
| 2026-04-23 05:53 | 23.39264 | 113.30789 | 56 ft | 19 kts | 193° |
| 2026-04-23 05:53 | 23.39106 | 113.30747 | 56 ft | 25 kts | 194° |
| 2026-04-23 05:54 | 23.38938 | 113.30702 | 56 ft | 23 kts | 194° |
| 2026-04-23 05:54 | 23.38794 | 113.30663 | 57 ft | 22 kts | 194° |
| 2026-04-23 05:54 | 23.38649 | 113.30624 | 56 ft | 20 kts | 194° |
| 2026-04-23 05:54 | 23.38514 | 113.30587 | 56 ft | 19 kts | 194° |
| 2026-04-23 05:55 | 23.38394 | 113.30554 | 56 ft | 17 kts | 193° |
| 2026-04-23 05:55 | 23.38289 | 113.30527 | 56 ft | 17 kts | 194° |
| 2026-04-23 05:55 | 23.38221 | 113.30508 | 57 ft | 18 kts | 194° |
| 2026-04-23 05:55 | 23.38151 | 113.30489 | 56 ft | 18 kts | 194° |
| 2026-04-23 05:56 | 23.38012 | 113.30451 | 57 ft | 18 kts | 193° |
| 2026-04-23 05:56 | 23.37856 | 113.30411 | 56 ft | 17 kts | 193° |
| 2026-04-23 05:56 | 23.37772 | 113.30389 | 56 ft | 11 kts | 193° |
| 2026-04-23 05:56 | 23.37725 | 113.30376 | 56 ft | 10 kts | 194° |
| 2026-04-23 05:57 | 23.37670 | 113.30362 | 56 ft | 7 kts | 185° |
| 2026-04-23 05:57 | 23.37609 | 113.30405 | 56 ft | 7 kts | 112° |
| 2026-04-23 05:57 | 23.37591 | 113.30477 | 56 ft | 7 kts | 96° |
| 2026-04-23 05:57 | 23.37602 | 113.30528 | 56 ft | 7 kts | 50° |
| 2026-04-23 05:58 | 23.37646 | 113.30554 | 56 ft | 6 kts | 16° |
| 2026-04-23 05:58 | 23.37746 | 113.30581 | 57 ft | 35 kts | 14° |
| 2026-04-23 05:58 | 23.38230 | 113.30711 | 57 ft | 106 kts | 14° |
| 2026-04-23 05:58 | 23.39165 | 113.30966 | 57 ft | 165 kts | 14° |
| 2026-04-23 05:59 | 23.40388 | 113.31316 | 320 ft | 192 kts | 15° |
| 2026-04-23 05:59 | 23.41693 | 113.31731 | 1215 ft | 193 kts | 14° |
| 2026-04-23 05:59 | 23.42995 | 113.32080 | 1879 ft | 200 kts | 13° |
| 2026-04-23 05:59 | 23.44426 | 113.32488 | 2374 ft | 220 kts | 14° |
| 2026-04-23 06:00 | 23.45955 | 113.32942 | 2949 ft | 236 kts | 14° |
| 2026-04-23 06:00 | 23.47585 | 113.33428 | 3510 ft | 253 kts | 14° |
| 2026-04-23 06:00 | 23.49366 | 113.33958 | 4226 ft | 265 kts | 13° |
| 2026-04-23 06:00 | 23.51163 | 113.34494 | 5037 ft | 271 kts | 13° |
| 2026-04-23 06:01 | 23.53021 | 113.35047 | 5775 ft | 280 kts | 12° |
| 2026-04-23 06:01 | 23.54931 | 113.35616 | 6509 ft | 287 kts | 12° |
| 2026-04-23 06:01 | 23.56915 | 113.36086 | 7279 ft | 291 kts | 6° |
| 2026-04-23 06:01 | 23.58897 | 113.36464 | 8125 ft | 292 kts | 5° |
| 2026-04-23 06:02 | 23.60922 | 113.36844 | 8948 ft | 295 kts | 5° |
| 2026-04-23 06:02 | 23.62941 | 113.37227 | 9743 ft | 298 kts | 4° |
| 2026-04-23 06:02 | 23.65010 | 113.37620 | 10414 ft | 306 kts | 5° |
| 2026-04-23 06:02 | 23.67201 | 113.38034 | 10846 ft | 324 kts | 5° |
| 2026-04-23 06:03 | 23.69516 | 113.38475 | 11275 ft | 342 kts | 5° |
| 2026-04-23 06:03 | 23.71901 | 113.38931 | 11755 ft | 357 kts | 5° |
| 2026-04-23 06:03 | 23.74425 | 113.39415 | 12229 ft | 373 kts | 5° |
| 2026-04-23 06:03 | 23.77057 | 113.39919 | 12687 ft | 388 kts | 5° |
| 2026-04-23 06:04 | 23.79796 | 113.40445 | 13265 ft | 399 kts | 5° |
| 2026-04-23 06:04 | 23.82540 | 113.40973 | 14077 ft | 402 kts | 6° |
| 2026-04-23 06:04 | 23.85370 | 113.41517 | 14859 ft | 407 kts | 6° |
| 2026-04-23 06:04 | 23.88202 | 113.42061 | 15584 ft | 413 kts | 5° |
| 2026-04-23 06:05 | 23.91089 | 113.42615 | 16289 ft | 418 kts | 6° |
| 2026-04-23 06:05 | 23.93966 | 113.43167 | 17023 ft | 422 kts | 5° |
| 2026-04-23 06:05 | 23.96888 | 113.43729 | 17728 ft | 426 kts | 5° |
| 2026-04-23 06:05 | 23.99858 | 113.44299 | 18410 ft | 431 kts | 5° |
| 2026-04-23 06:06 | 24.02879 | 113.44880 | 18989 ft | 438 kts | 5° |
| 2026-04-23 06:06 | 24.05934 | 113.45418 | 19504 ft | 443 kts | 1° |
| 2026-04-23 06:06 | 24.09046 | 113.45491 | 20002 ft | 444 kts | 351° |
| 2026-04-23 06:06 | 24.12152 | 113.45132 | 20595 ft | 445 kts | 347° |
| 2026-04-23 06:07 | 24.15244 | 113.44713 | 21324 ft | 445 kts | 347° |
| 2026-04-23 06:07 | 24.18339 | 113.44291 | 21946 ft | 448 kts | 347° |
| 2026-04-23 06:07 | 24.21478 | 113.43863 | 22423 ft | 454 kts | 347° |
| 2026-04-23 06:07 | 24.24676 | 113.43428 | 22977 ft | 459 kts | 347° |
| 2026-04-23 06:08 | 24.27870 | 113.42996 | 23606 ft | 461 kts | 346° |
| 2026-04-23 06:08 | 24.31035 | 113.42567 | 24232 ft | 462 kts | 346° |
| 2026-04-23 06:08 | 24.34279 | 113.42129 | 24800 ft | 466 kts | 346° |
| 2026-04-23 06:08 | 24.37520 | 113.41692 | 25346 ft | 471 kts | 346° |
| 2026-04-23 06:09 | 24.40807 | 113.41251 | 25897 ft | 475 kts | 346° |
| 2026-04-23 06:09 | 24.44107 | 113.40809 | 26515 ft | 477 kts | 346° |
| 2026-04-23 06:09 | 24.47464 | 113.40359 | 27128 ft | 480 kts | 345° |
| 2026-04-23 06:09 | 24.50769 | 113.39917 | 27665 ft | 484 kts | 345° |
| 2026-04-23 06:10 | 24.54184 | 113.39459 | 28228 ft | 488 kts | 345° |
| 2026-04-23 06:10 | 24.57550 | 113.39007 | 28763 ft | 491 kts | 345° |
| 2026-04-23 06:10 | 24.60982 | 113.38547 | 29339 ft | 494 kts | 345° |
| 2026-04-23 06:10 | 24.64410 | 113.38088 | 30015 ft | 494 kts | 345° |
| 2026-04-23 06:11 | 24.67855 | 113.37628 | 30843 ft | 490 kts | 345° |
| 2026-04-23 06:11 | 24.71259 | 113.37176 | 31732 ft | 485 kts | 344° |
| 2026-04-23 06:11 | 24.74587 | 113.36732 | 32499 ft | 480 kts | 344° |
| 2026-04-23 06:11 | 24.77895 | 113.36290 | 33212 ft | 479 kts | 344° |
| 2026-04-23 06:12 | 24.81197 | 113.35847 | 33897 ft | 478 kts | 344° |
| 2026-04-23 06:12 | 24.84493 | 113.35407 | 34657 ft | 474 kts | 344° |
| 2026-04-23 06:12 | 24.91113 | 113.34516 | 35089 ft | 477 kts | 344° |
| 2026-04-23 06:13 | 24.96095 | 113.33849 | 35079 ft | 471 kts | 343° |
| 2026-04-23 06:13 | 25.02640 | 113.32967 | 35088 ft | 474 kts | 343° |
| 2026-04-23 06:14 | 25.09227 | 113.32082 | 35084 ft | 473 kts | 343° |
| 2026-04-23 06:14 | 25.15775 | 113.31200 | 35093 ft | 472 kts | 343° |
| 2026-04-23 06:15 | 25.22325 | 113.30317 | 35091 ft | 473 kts | 343° |
| 2026-04-23 06:15 | 25.28878 | 113.29435 | 35095 ft | 471 kts | 343° |
| 2026-04-23 06:16 | 25.35428 | 113.28551 | 35093 ft | 473 kts | 343° |
| 2026-04-23 06:16 | 25.42018 | 113.27661 | 35094 ft | 471 kts | 343° |
| 2026-04-23 06:17 | 25.48555 | 113.26779 | 35099 ft | 472 kts | 343° |
| 2026-04-23 06:17 | 25.55089 | 113.25896 | 35104 ft | 473 kts | 342° |
| 2026-04-23 06:18 | 25.61617 | 113.25013 | 35097 ft | 472 kts | 342° |
| 2026-04-23 06:18 | 25.68105 | 113.24136 | 35101 ft | 471 kts | 342° |
| 2026-04-23 06:19 | 25.74611 | 113.23255 | 35117 ft | 472 kts | 342° |
| 2026-04-23 06:19 | 25.81090 | 113.22379 | 35104 ft | 471 kts | 342° |
| 2026-04-23 06:20 | 25.87616 | 113.21495 | 35104 ft | 470 kts | 342° |
| 2026-04-23 06:20 | 25.94083 | 113.20618 | 35098 ft | 470 kts | 342° |
| 2026-04-23 06:21 | 26.00587 | 113.19737 | 35083 ft | 470 kts | 342° |
| 2026-04-23 06:21 | 26.07040 | 113.18860 | 35089 ft | 471 kts | 342° |
| 2026-04-23 06:22 | 26.13577 | 113.17973 | 35097 ft | 470 kts | 342° |
| 2026-04-23 06:22 | 26.20174 | 113.17078 | 35095 ft | 470 kts | 342° |
| 2026-04-23 06:23 | 26.26797 | 113.16177 | 35097 ft | 470 kts | 342° |
| 2026-04-23 06:23 | 26.33425 | 113.15275 | 35097 ft | 471 kts | 341° |
| 2026-04-23 06:24 | 26.39907 | 113.14393 | 35100 ft | 471 kts | 341° |
| 2026-04-23 06:24 | 26.46388 | 113.13510 | 35097 ft | 470 kts | 341° |
| 2026-04-23 06:25 | 26.53025 | 113.12841 | 35108 ft | 485 kts | 350° |
| 2026-04-23 06:25 | 26.59816 | 113.14193 | 35108 ft | 509 kts | 9° |
| 2026-04-23 06:26 | 26.63179 | 113.15795 | 35108 ft | 532 kts | 18° |
| 2026-04-23 06:26 | 26.66432 | 113.18005 | 35107 ft | 554 kts | 27° |
| 2026-04-23 06:26 | 26.73080 | 113.22324 | 35086 ft | 551 kts | 12° |
| 2026-04-23 06:27 | 26.80433 | 113.24863 | 35098 ft | 547 kts | 5° |
| 2026-04-23 06:27 | 26.87791 | 113.27100 | 35104 ft | 545 kts | 5° |
| 2026-04-23 06:28 | 26.95206 | 113.29352 | 35104 ft | 544 kts | 5° |
| 2026-04-23 06:28 | 27.02627 | 113.31606 | 35107 ft | 546 kts | 5° |
| 2026-04-23 06:29 | 27.10005 | 113.33848 | 35117 ft | 546 kts | 4° |
| 2026-04-23 06:29 | 27.17411 | 113.36097 | 35108 ft | 548 kts | 4° |
| 2026-04-23 06:30 | 27.24767 | 113.38332 | 35111 ft | 547 kts | 4° |
| 2026-04-23 06:30 | 27.32237 | 113.40421 | 35097 ft | 538 kts | 357° |
| 2026-04-23 06:31 | 27.39597 | 113.40917 | 35111 ft | 524 kts | 349° |
| 2026-04-23 06:31 | 27.47004 | 113.41060 | 35111 ft | 520 kts | 349° |
| 2026-04-23 06:32 | 27.54257 | 113.41196 | 35107 ft | 520 kts | 349° |
| 2026-04-23 06:32 | 27.61553 | 113.41335 | 35111 ft | 524 kts | 349° |
| 2026-04-23 06:33 | 27.68968 | 113.41597 | 35119 ft | 531 kts | 352° |
| 2026-04-23 06:33 | 27.76311 | 113.42293 | 35106 ft | 532 kts | 353° |
| 2026-04-23 06:34 | 27.83795 | 113.42996 | 35112 ft | 531 kts | 353° |
| 2026-04-23 06:34 | 27.91235 | 113.43677 | 35110 ft | 530 kts | 352° |
| 2026-04-23 06:35 | 27.98718 | 113.44344 | 35113 ft | 530 kts | 352° |
| 2026-04-23 06:35 | 28.06198 | 113.45001 | 35118 ft | 533 kts | 352° |
| 2026-04-23 06:36 | 28.13611 | 113.45605 | 35106 ft | 531 kts | 351° |
| 2026-04-23 06:36 | 28.20977 | 113.46122 | 35110 ft | 529 kts | 351° |
| 2026-04-23 06:37 | 28.28311 | 113.46642 | 35106 ft | 529 kts | 351° |
| 2026-04-23 06:37 | 28.35574 | 113.47161 | 35112 ft | 529 kts | 351° |
| 2026-04-23 06:38 | 28.42929 | 113.47688 | 35108 ft | 529 kts | 351° |
| 2026-04-23 06:38 | 28.50247 | 113.48209 | 35111 ft | 529 kts | 351° |
| 2026-04-23 06:39 | 28.57567 | 113.48731 | 35113 ft | 530 kts | 351° |
| 2026-04-23 06:39 | 28.64833 | 113.49253 | 35114 ft | 527 kts | 351° |
| 2026-04-23 06:40 | 28.72180 | 113.49776 | 35111 ft | 531 kts | 351° |
| 2026-04-23 06:40 | 28.79496 | 113.50303 | 35116 ft | 528 kts | 351° |
| 2026-04-23 06:41 | 28.86776 | 113.50826 | 35113 ft | 527 kts | 351° |
| 2026-04-23 06:41 | 28.94136 | 113.51354 | 35113 ft | 529 kts | 351° |
| 2026-04-23 06:42 | 29.01437 | 113.51879 | 35124 ft | 528 kts | 351° |
| 2026-04-23 06:42 | 29.08739 | 113.52407 | 35119 ft | 528 kts | 351° |
| 2026-04-23 06:43 | 29.16006 | 113.52931 | 35120 ft | 528 kts | 352° |
| 2026-04-23 06:43 | 29.23363 | 113.53463 | 35111 ft | 529 kts | 352° |
| 2026-04-23 06:44 | 29.30724 | 113.54009 | 35116 ft | 530 kts | 353° |
| 2026-04-23 06:44 | 29.38117 | 113.54653 | 35121 ft | 530 kts | 353° |
| 2026-04-23 06:45 | 29.45473 | 113.55296 | 35118 ft | 531 kts | 353° |
| 2026-04-23 06:45 | 29.52878 | 113.55945 | 35116 ft | 527 kts | 353° |
| 2026-04-23 06:46 | 29.60322 | 113.56592 | 35115 ft | 529 kts | 353° |
| 2026-04-23 06:46 | 29.67782 | 113.57241 | 35122 ft | 530 kts | 354° |
| 2026-04-23 06:47 | 29.75213 | 113.57891 | 35125 ft | 527 kts | 354° |
| 2026-04-23 06:47 | 29.82486 | 113.58524 | 35113 ft | 530 kts | 354° |
| 2026-04-23 06:48 | 29.89874 | 113.59172 | 35124 ft | 527 kts | 354° |
| 2026-04-23 06:48 | 29.93453 | 113.59744 | 35135 ft | 539 kts | 3° |
| 2026-04-23 06:48 | 29.96524 | 113.60704 | 35141 ft | 553 kts | 10° |
| 2026-04-23 06:49 | 30.11731 | 113.68142 | 35095 ft | 557 kts | 16° |
| 2026-04-23 06:50 | 30.18882 | 113.71725 | 35118 ft | 557 kts | 15° |
| 2026-04-23 06:50 | 30.26072 | 113.75328 | 35096 ft | 559 kts | 16° |
| 2026-04-23 06:51 | 30.33229 | 113.78921 | 35086 ft | 554 kts | 15° |
| 2026-04-23 06:51 | 30.40364 | 113.82505 | 35086 ft | 553 kts | 15° |
| 2026-04-23 06:52 | 30.47536 | 113.86112 | 35102 ft | 554 kts | 15° |
| 2026-04-23 06:52 | 30.54597 | 113.89671 | 35087 ft | 550 kts | 16° |
| 2026-04-23 06:53 | 30.61735 | 113.93268 | 35109 ft | 555 kts | 16° |
| 2026-04-23 06:53 | 30.68824 | 113.96752 | 35111 ft | 549 kts | 14° |
| 2026-04-23 06:54 | 30.75867 | 114.00469 | 35109 ft | 551 kts | 18° |
| 2026-04-23 06:54 | 30.82833 | 114.04349 | 35100 ft | 551 kts | 18° |
| 2026-04-23 06:55 | 30.89827 | 114.08154 | 35090 ft | 550 kts | 17° |
| 2026-04-23 06:55 | 30.96824 | 114.11958 | 35101 ft | 549 kts | 17° |
| 2026-04-23 06:56 | 31.03802 | 114.15753 | 35104 ft | 552 kts | 17° |
| 2026-04-23 06:56 | 31.10793 | 114.19557 | 35105 ft | 549 kts | 17° |
| 2026-04-23 06:57 | 31.17777 | 114.23360 | 35095 ft | 549 kts | 17° |
| 2026-04-23 06:57 | 31.24736 | 114.27155 | 35101 ft | 551 kts | 17° |
| 2026-04-23 06:58 | 31.31776 | 114.30954 | 35092 ft | 545 kts | 14° |
| 2026-04-23 06:58 | 31.39041 | 114.33148 | 35095 ft | 526 kts | 357° |
| 2026-04-23 06:59 | 31.46285 | 114.33523 | 35107 ft | 518 kts | 352° |
| 2026-04-23 06:59 | 31.53542 | 114.33727 | 35110 ft | 515 kts | 352° |
| 2026-04-23 07:00 | 31.60742 | 114.33931 | 35117 ft | 517 kts | 352° |
| 2026-04-23 07:00 | 31.67982 | 114.34142 | 35115 ft | 515 kts | 352° |
| 2026-04-23 07:01 | 31.75176 | 114.34352 | 35117 ft | 519 kts | 352° |
| 2026-04-23 07:01 | 31.82385 | 114.34573 | 35117 ft | 516 kts | 352° |
| 2026-04-23 07:02 | 31.86030 | 114.34682 | 34992 ft | 517 kts | 352° |
| 2026-04-23 07:02 | 31.89629 | 114.34790 | 35120 ft | 519 kts | 352° |
| 2026-04-23 07:02 | 31.96870 | 114.35009 | 35125 ft | 519 kts | 352° |
| 2026-04-23 07:03 | 32.04133 | 114.35227 | 35139 ft | 520 kts | 352° |
| 2026-04-23 07:03 | 32.11422 | 114.35450 | 35118 ft | 518 kts | 352° |
| 2026-04-23 07:04 | 32.18696 | 114.35669 | 35115 ft | 521 kts | 352° |
| 2026-04-23 07:04 | 32.25989 | 114.35891 | 35115 ft | 519 kts | 352° |
| 2026-04-23 07:05 | 32.33275 | 114.36486 | 35112 ft | 523 kts | 355° |
| 2026-04-23 07:05 | 32.40593 | 114.37192 | 35113 ft | 525 kts | 355° |
| 2026-04-23 07:06 | 32.47940 | 114.37886 | 35114 ft | 522 kts | 355° |
| 2026-04-23 07:06 | 32.55220 | 114.38563 | 35111 ft | 523 kts | 355° |
| 2026-04-23 07:07 | 32.62481 | 114.39236 | 35111 ft | 524 kts | 355° |
| 2026-04-23 07:07 | 32.69866 | 114.39921 | 35108 ft | 523 kts | 355° |
| 2026-04-23 07:08 | 32.77139 | 114.40601 | 35110 ft | 523 kts | 355° |
| 2026-04-23 07:08 | 32.84412 | 114.41280 | 35107 ft | 525 kts | 355° |
| 2026-04-23 07:09 | 32.91744 | 114.41972 | 35033 ft | 511 kts | 355° |
| 2026-04-23 07:09 | 32.95288 | 114.42307 | 34391 ft | 509 kts | 355° |
| 2026-04-23 07:09 | 32.98785 | 114.42632 | 33314 ft | 516 kts | 355° |
| 2026-04-23 07:10 | 33.02411 | 114.42965 | 32083 ft | 522 kts | 356° |
| 2026-04-23 07:10 | 33.06029 | 114.43304 | 31293 ft | 518 kts | 356° |
| 2026-04-23 07:10 | 33.09609 | 114.43643 | 30813 ft | 509 kts | 356° |
| 2026-04-23 07:10 | 33.13136 | 114.43979 | 30354 ft | 500 kts | 356° |
| 2026-04-23 07:11 | 33.16586 | 114.44305 | 29803 ft | 494 kts | 357° |
| 2026-04-23 07:11 | 33.20000 | 114.44626 | 29134 ft | 490 kts | 358° |
| 2026-04-23 07:11 | 33.23427 | 114.44947 | 28474 ft | 486 kts | 358° |
| 2026-04-23 07:12 | 33.30085 | 114.45574 | 27372 ft | 474 kts | 359° |
| 2026-04-23 07:12 | 33.33354 | 114.45882 | 26792 ft | 468 kts | 359° |
| 2026-04-23 07:12 | 33.36598 | 114.46185 | 26140 ft | 464 kts | 359° |
| 2026-04-23 07:12 | 33.39783 | 114.46484 | 25530 ft | 459 kts | 359° |
| 2026-04-23 07:13 | 33.42950 | 114.46781 | 24952 ft | 453 kts | 360° |
| 2026-04-23 07:13 | 33.46072 | 114.47075 | 24345 ft | 448 kts | 0° |
| 2026-04-23 07:13 | 33.49169 | 114.47366 | 23741 ft | 443 kts | 0° |
| 2026-04-23 07:13 | 33.52197 | 114.47651 | 23161 ft | 437 kts | 1° |
| 2026-04-23 07:14 | 33.55240 | 114.47938 | 22526 ft | 433 kts | 1° |
| 2026-04-23 07:14 | 33.58222 | 114.48219 | 21919 ft | 428 kts | 1° |
| 2026-04-23 07:14 | 33.61194 | 114.48499 | 21326 ft | 423 kts | 1° |
| 2026-04-23 07:14 | 33.64093 | 114.48653 | 20666 ft | 417 kts | 357° |
| 2026-04-23 07:15 | 33.66956 | 114.48624 | 20056 ft | 412 kts | 356° |
| 2026-04-23 07:15 | 33.69835 | 114.48591 | 19475 ft | 407 kts | 356° |
| 2026-04-23 07:15 | 33.72652 | 114.48567 | 18855 ft | 403 kts | 357° |
| 2026-04-23 07:15 | 33.75441 | 114.48549 | 18237 ft | 399 kts | 357° |
| 2026-04-23 07:16 | 33.78175 | 114.48537 | 17656 ft | 394 kts | 357° |
| 2026-04-23 07:16 | 33.80899 | 114.48527 | 17049 ft | 390 kts | 358° |
| 2026-04-23 07:16 | 33.83611 | 114.48519 | 16397 ft | 387 kts | 358° |
| 2026-04-23 07:16 | 33.86288 | 114.48514 | 15744 ft | 385 kts | 359° |
| 2026-04-23 07:17 | 33.88978 | 114.48509 | 15083 ft | 381 kts | 359° |
| 2026-04-23 07:17 | 33.91645 | 114.48505 | 14539 ft | 376 kts | 359° |
| 2026-04-23 07:17 | 33.94283 | 114.48502 | 13947 ft | 372 kts | 360° |
| 2026-04-23 07:17 | 33.96842 | 114.48499 | 13296 ft | 369 kts | 360° |
| 2026-04-23 07:18 | 33.99408 | 114.48497 | 12707 ft | 365 kts | 0° |
| 2026-04-23 07:18 | 34.01954 | 114.48495 | 12056 ft | 362 kts | 1° |
| 2026-04-23 07:18 | 34.04466 | 114.48493 | 11392 ft | 361 kts | 1° |
| 2026-04-23 07:18 | 34.07007 | 114.48491 | 10746 ft | 358 kts | 1° |
| 2026-04-23 07:19 | 34.09474 | 114.48489 | 10158 ft | 355 kts | 2° |
| 2026-04-23 07:19 | 34.11956 | 114.48488 | 9561 ft | 351 kts | 2° |
| 2026-04-23 07:19 | 34.14420 | 114.48486 | 8923 ft | 350 kts | 2° |
| 2026-04-23 07:19 | 34.16837 | 114.48505 | 8276 ft | 348 kts | 5° |
| 2026-04-23 07:20 | 34.19186 | 114.49099 | 7621 ft | 345 kts | 20° |
| 2026-04-23 07:20 | 34.21424 | 114.50140 | 7114 ft | 336 kts | 23° |
| 2026-04-23 07:20 | 34.23557 | 114.51202 | 6678 ft | 318 kts | 24° |
| 2026-04-23 07:20 | 34.25586 | 114.52086 | 6373 ft | 302 kts | 12° |
| 2026-04-23 07:21 | 34.27639 | 114.52058 | 6012 ft | 292 kts | 347° |
| 2026-04-23 07:21 | 34.29507 | 114.51169 | 5890 ft | 281 kts | 329° |
| 2026-04-23 07:21 | 34.30917 | 114.49603 | 5833 ft | 269 kts | 308° |
| 2026-04-23 07:21 | 34.31924 | 114.47712 | 5588 ft | 267 kts | 300° |
| 2026-04-23 07:22 | 34.32731 | 114.45672 | 5209 ft | 268 kts | 291° |
| 2026-04-23 07:22 | 34.33387 | 114.43542 | 4909 ft | 266 kts | 291° |
| 2026-04-23 07:22 | 34.34045 | 114.41419 | 4590 ft | 265 kts | 291° |
| 2026-04-23 07:22 | 34.34703 | 114.39344 | 4288 ft | 264 kts | 292° |
| 2026-04-23 07:23 | 34.35377 | 114.37267 | 3996 ft | 262 kts | 292° |
| 2026-04-23 07:23 | 34.36050 | 114.35239 | 3935 ft | 261 kts | 292° |
| 2026-04-23 07:23 | 34.36732 | 114.33212 | 3925 ft | 261 kts | 292° |
| 2026-04-23 07:23 | 34.37428 | 114.31156 | 3936 ft | 261 kts | 292° |
| 2026-04-23 07:24 | 34.38122 | 114.29124 | 3950 ft | 261 kts | 293° |
| 2026-04-23 07:24 | 34.38824 | 114.27083 | 3934 ft | 261 kts | 293° |
| 2026-04-23 07:24 | 34.39530 | 114.25042 | 3925 ft | 261 kts | 293° |
| 2026-04-23 07:24 | 34.40233 | 114.23034 | 3927 ft | 254 kts | 293° |
| 2026-04-23 07:25 | 34.40932 | 114.21110 | 3927 ft | 240 kts | 295° |
| 2026-04-23 07:25 | 34.41609 | 114.19325 | 3931 ft | 224 kts | 295° |
| 2026-04-23 07:25 | 34.42249 | 114.17674 | 3919 ft | 207 kts | 295° |
| 2026-04-23 07:25 | 34.42851 | 114.16096 | 3936 ft | 199 kts | 295° |
| 2026-04-23 07:26 | 34.43408 | 114.14569 | 3935 ft | 198 kts | 294° |
| 2026-04-23 07:26 | 34.43953 | 114.13025 | 3938 ft | 196 kts | 294° |
| 2026-04-23 07:26 | 34.44477 | 114.11526 | 3936 ft | 190 kts | 293° |
| 2026-04-23 07:26 | 34.44992 | 114.10052 | 3933 ft | 188 kts | 293° |
| 2026-04-23 07:27 | 34.45507 | 114.08569 | 3932 ft | 187 kts | 293° |
| 2026-04-23 07:27 | 34.46015 | 114.07101 | 3805 ft | 191 kts | 293° |
| 2026-04-23 07:27 | 34.46529 | 114.05613 | 3546 ft | 187 kts | 292° |
| 2026-04-23 07:27 | 34.47026 | 114.04179 | 3315 ft | 183 kts | 292° |
| 2026-04-23 07:28 | 34.47507 | 114.02791 | 3083 ft | 173 kts | 292° |
| 2026-04-23 07:28 | 34.47980 | 114.01430 | 2873 ft | 166 kts | 292° |
| 2026-04-23 07:28 | 34.48428 | 114.00133 | 2658 ft | 166 kts | 292° |
| 2026-04-23 07:28 | 34.48875 | 113.98836 | 2439 ft | 166 kts | 292° |
| 2026-04-23 07:29 | 34.49318 | 113.97555 | 2218 ft | 164 kts | 292° |
| 2026-04-23 07:29 | 34.49756 | 113.96277 | 2000 ft | 164 kts | 292° |
| 2026-04-23 07:29 | 34.50196 | 113.95002 | 1778 ft | 163 kts | 291° |
| 2026-04-23 07:29 | 34.50633 | 113.93726 | 1562 ft | 162 kts | 292° |
| 2026-04-23 07:30 | 34.51071 | 113.92454 | 1338 ft | 161 kts | 292° |
| 2026-04-23 07:30 | 34.51511 | 113.91174 | 1121 ft | 161 kts | 292° |
| 2026-04-23 07:30 | 34.51947 | 113.89933 | 895 ft | 158 kts | 292° |
| 2026-04-23 07:30 | 34.52375 | 113.88707 | 671 ft | 158 kts | 292° |
| 2026-04-23 07:31 | 34.52795 | 113.87463 | 518 ft | 158 kts | 291° |
| 2026-04-23 07:31 | 34.53207 | 113.86240 | 484 ft | 146 kts | 291° |
| 2026-04-23 07:31 | 34.53534 | 113.85278 | 501 ft | 101 kts | 292° |
| 2026-04-23 07:31 | 34.53705 | 113.84781 | 513 ft | 33 kts | 292° |
| 2026-04-23 07:32 | 34.53789 | 113.84540 | 517 ft | 29 kts | 294° |
| 2026-04-23 07:32 | 34.53852 | 113.84342 | 518 ft | 20 kts | 274° |
| 2026-04-23 07:32 | 34.53769 | 113.84231 | 519 ft | 18 kts | 202° |
| 2026-04-23 07:32 | 34.53653 | 113.84191 | 519 ft | 16 kts | 170° |
| 2026-04-23 07:33 | 34.53590 | 113.84292 | 519 ft | 15 kts | 110° |
| 2026-04-23 07:33 | 34.53552 | 113.84410 | 517 ft | 15 kts | 113° |
| 2026-04-23 07:33 | 34.53512 | 113.84530 | 515 ft | 15 kts | 112° |
| 2026-04-23 07:33 | 34.53468 | 113.84660 | 511 ft | 17 kts | 113° |
| 2026-04-23 07:34 | 34.53419 | 113.84802 | 507 ft | 18 kts | 112° |
| 2026-04-23 07:34 | 34.53335 | 113.84878 | 506 ft | 15 kts | 166° |
| 2026-04-23 07:34 | 34.53264 | 113.84895 | 505 ft | 0 kts | 169° |
| 2026-04-23 07:34 | 34.53262 | 113.84895 | 505 ft | 0 kts | 169° |